createdAt,value
2017-11-03T00:00:33.688Z,9.70
2017-11-03T00:05:35.510Z,9.60
2017-11-03T00:10:37.317Z,9.60
2017-11-03T00:15:38.382Z,9.60
2017-11-03T00:20:39.433Z,9.50
2017-11-03T00:25:40.518Z,9.50
2017-11-03T00:30:41.593Z,9.40
2017-11-03T00:35:42.653Z,9.40
2017-11-03T00:40:43.717Z,9.40
2017-11-03T00:45:44.784Z,9.40
2017-11-03T00:50:45.850Z,9.40
2017-11-03T00:55:46.908Z,9.40
2017-11-03T01:00:47.971Z,9.40
2017-11-03T01:05:49.762Z,9.50
2017-11-03T01:10:50.805Z,9.40
2017-11-03T01:15:52.582Z,9.50
2017-11-03T01:20:54.379Z,9.40
2017-11-03T01:25:55.439Z,9.40
2017-11-03T01:30:56.485Z,9.40
2017-11-03T01:35:58.283Z,9.30
2017-11-03T01:40:59.358Z,9.30
2017-11-03T01:46:00.449Z,9.30
2017-11-03T01:51:01.510Z,9.30
2017-11-03T01:56:02.585Z,9.30
2017-11-03T02:01:04.375Z,9.20
2017-11-03T02:06:05.443Z,9.20
2017-11-03T02:11:06.518Z,9.30
2017-11-03T02:16:07.609Z,9.30
2017-11-03T02:21:08.682Z,9.20
2017-11-03T02:26:09.764Z,9.20
2017-11-03T02:31:10.814Z,9.10
2017-11-03T02:36:12.621Z,9.10
2017-11-03T02:41:13.701Z,9.10
2017-11-03T02:46:14.762Z,9.10
2017-11-03T02:51:15.833Z,9.10
2017-11-03T02:56:16.893Z,9.00
2017-11-03T03:01:17.945Z,9.00
2017-11-03T03:06:18.996Z,9.00
2017-11-03T03:11:20.049Z,8.90
2017-11-03T03:16:21.104Z,8.90
2017-11-03T03:21:22.188Z,8.80
2017-11-03T03:26:23.284Z,8.80
2017-11-03T03:31:24.341Z,8.70
2017-11-03T03:36:25.437Z,8.60
2017-11-03T03:41:26.496Z,8.60
2017-11-03T03:46:27.562Z,8.60
2017-11-03T03:51:28.662Z,8.50
2017-11-03T03:56:29.717Z,8.50
2017-11-03T04:01:31.565Z,8.50
2017-11-03T04:06:32.679Z,8.50
2017-11-03T04:11:33.734Z,8.50
2017-11-03T04:16:34.769Z,8.50
2017-11-03T04:21:40.204Z,8.40
2017-11-03T04:26:41.298Z,8.40
2017-11-03T04:31:42.381Z,8.40
2017-11-03T04:36:43.445Z,8.30
2017-11-03T04:41:44.513Z,8.20
2017-11-03T04:46:45.586Z,8.20
2017-11-03T04:51:47.402Z,8.20
2017-11-03T04:56:49.197Z,8.10
2017-11-03T05:01:50.261Z,8.10
2017-11-03T05:06:51.337Z,8.00
2017-11-03T05:11:52.401Z,8.00
2017-11-03T05:16:53.456Z,8.00
2017-11-03T05:21:54.529Z,8.00
2017-11-03T05:26:56.098Z,7.90
2017-11-03T05:31:57.930Z,7.90
2017-11-03T05:36:59.012Z,7.90
2017-11-03T05:42:00.089Z,7.70
2017-11-03T05:47:01.152Z,7.80
2017-11-03T05:52:02.213Z,7.70
2017-11-03T05:57:03.277Z,7.60
2017-11-03T06:02:04.342Z,7.60
2017-11-03T06:07:07.393Z,7.60
2017-11-03T06:12:08.474Z,7.70
2017-11-03T06:17:09.566Z,7.80
2017-11-03T06:22:10.641Z,7.80
2017-11-03T06:27:12.449Z,7.70
2017-11-03T06:32:13.509Z,7.70
2017-11-03T06:37:14.569Z,7.80
2017-11-03T06:42:15.657Z,7.80
2017-11-03T06:47:16.704Z,8.00
2017-11-03T06:52:17.757Z,8.10
2017-11-03T06:57:18.809Z,8.30
2017-11-03T07:02:19.880Z,8.50
2017-11-03T07:07:20.947Z,8.60
2017-11-03T07:12:22.010Z,8.70
2017-11-03T07:17:23.077Z,8.90
2017-11-03T07:22:24.126Z,9.10
2017-11-03T07:27:25.184Z,9.30
2017-11-03T07:32:26.220Z,9.40
2017-11-03T07:37:27.289Z,9.70
2017-11-03T07:42:28.358Z,9.80
2017-11-03T07:47:29.426Z,9.90
2017-11-03T07:52:30.489Z,10.10
2017-11-03T07:57:32.317Z,10.10
2017-11-03T08:02:33.368Z,10.10
2017-11-03T08:07:35.140Z,10.00
2017-11-03T08:12:36.205Z,10.00
2017-11-03T08:17:37.268Z,10.00
2017-11-03T08:22:38.345Z,10.50
2017-11-03T08:27:43.028Z,10.90
2017-11-03T08:32:44.828Z,11.10
2017-11-03T08:37:45.885Z,11.10
2017-11-03T08:42:47.797Z,11.10
2017-11-03T08:47:48.840Z,11.50
2017-11-03T08:52:49.926Z,11.90
2017-11-03T08:57:51.016Z,12.40
2017-11-03T09:02:52.796Z,13.70
2017-11-03T09:07:54.589Z,14.20
2017-11-03T09:12:56.674Z,14.20
2017-11-03T09:17:57.752Z,14.10
2017-11-03T09:22:58.830Z,13.50
2017-11-03T09:27:59.901Z,12.00
2017-11-03T09:33:00.977Z,11.80
2017-11-03T09:38:02.785Z,11.50
2017-11-03T09:43:03.882Z,11.50
2017-11-03T09:48:04.960Z,12.10
2017-11-03T09:53:06.015Z,12.30
2017-11-03T09:58:07.885Z,12.10
2017-11-03T10:03:08.952Z,12.10
2017-11-03T10:08:10.014Z,12.30
2017-11-03T10:13:11.841Z,12.50
2017-11-03T10:18:12.921Z,12.50
2017-11-03T10:23:14.065Z,12.80
2017-11-03T10:28:15.149Z,13.20
2017-11-03T10:33:16.234Z,13.50
2017-11-03T10:38:18.040Z,14.90
2017-11-03T10:43:19.122Z,14.90
2017-11-03T10:48:20.204Z,15.50
2017-11-03T10:53:21.257Z,15.80
2017-11-03T10:58:22.347Z,15.30
2017-11-03T11:03:24.135Z,14.20
2017-11-03T11:08:25.177Z,14.20
2017-11-03T11:13:26.998Z,15.20
2017-11-03T11:18:28.073Z,15.20
2017-11-03T11:23:29.138Z,15.40
2017-11-03T11:28:30.204Z,15.80
2017-11-03T11:33:31.276Z,16.40
2017-11-03T11:38:33.089Z,16.80
2017-11-03T11:43:34.253Z,16.80
2017-11-03T11:48:35.345Z,16.60
2017-11-03T11:53:36.421Z,16.50
2017-11-03T11:58:37.526Z,16.50
2017-11-03T12:03:38.640Z,16.90
2017-11-03T12:08:43.074Z,17.10
2017-11-03T12:13:44.167Z,16.30
2017-11-03T12:18:45.656Z,16.30
2017-11-03T12:23:46.769Z,16.40
2017-11-03T12:28:47.849Z,16.10
2017-11-03T12:33:49.653Z,15.70
2017-11-03T12:38:50.702Z,15.70
2017-11-03T12:43:51.794Z,15.90
2017-11-03T12:48:52.862Z,15.30
2017-11-03T12:53:53.945Z,15.20
2017-11-03T12:58:55.745Z,15.20
2017-11-03T13:03:56.825Z,15.20
2017-11-03T13:08:57.892Z,15.40
2017-11-03T13:13:58.957Z,15.10
2017-11-03T13:19:00.023Z,14.80
2017-11-03T13:24:01.081Z,14.70
2017-11-03T13:29:02.197Z,14.50
2017-11-03T13:34:03.262Z,14.40
2017-11-03T13:39:04.341Z,14.40
2017-11-03T13:44:05.415Z,14.30
2017-11-03T13:49:06.472Z,13.90
2017-11-03T13:54:07.566Z,13.70
2017-11-03T13:59:09.388Z,13.40
2017-11-03T14:04:10.452Z,13.40
2017-11-03T14:09:11.523Z,13.20
2017-11-03T14:14:12.586Z,13.20
2017-11-03T14:19:16.997Z,12.90
2017-11-03T14:24:18.070Z,12.90
2017-11-03T14:29:19.151Z,12.70
2017-11-03T14:34:20.239Z,12.40
2017-11-03T14:39:22.057Z,11.90
2017-11-03T14:44:23.395Z,11.90
2017-11-03T14:49:24.453Z,11.80
2017-11-03T14:54:25.513Z,11.70
2017-11-03T14:59:27.576Z,11.50
2017-11-03T15:04:29.378Z,11.00
2017-11-03T15:09:30.452Z,11.00
2017-11-03T15:14:31.522Z,10.70
2017-11-03T15:19:32.600Z,10.50
2017-11-03T15:24:33.683Z,10.20
2017-11-03T15:29:34.777Z,9.90
2017-11-03T15:34:35.882Z,9.60
2017-11-03T15:39:36.946Z,9.20
2017-11-03T15:44:38.750Z,8.60
2017-11-03T15:49:39.821Z,8.60
2017-11-03T15:54:41.882Z,8.40
2017-11-03T15:59:42.956Z,8.10
2017-11-03T16:04:44.021Z,7.80
2017-11-03T16:09:45.093Z,7.50
2017-11-03T16:14:46.208Z,7.40
2017-11-03T16:19:47.996Z,7.10
2017-11-03T16:24:49.076Z,7.10
2017-11-03T16:29:50.150Z,7.10
2017-11-03T16:34:51.205Z,7.10
2017-11-03T16:39:52.290Z,7.00
2017-11-03T16:44:53.375Z,6.80
2017-11-03T16:49:54.445Z,6.60
2017-11-03T16:54:55.558Z,6.40
2017-11-03T16:59:56.622Z,6.30
2017-11-03T17:04:57.668Z,6.20
2017-11-03T17:09:58.733Z,6.10
2017-11-03T17:14:59.806Z,6.00
2017-11-03T17:20:13.832Z,5.90
2017-11-03T17:25:14.886Z,5.80
2017-11-03T17:30:15.966Z,5.70
2017-11-03T17:35:31.969Z,5.60
2017-11-03T17:40:33.022Z,5.50
2017-11-03T17:45:34.098Z,5.40
2017-11-03T17:50:35.170Z,5.40
2017-11-03T17:55:41.570Z,5.30
2017-11-03T18:00:43.384Z,5.20
2017-11-03T18:05:46.528Z,5.10
2017-11-03T18:10:47.610Z,5.10
2017-11-03T18:15:49.452Z,5.00
2017-11-03T18:20:58.910Z,5.00
2017-11-03T18:25:59.974Z,4.90
2017-11-03T18:31:01.028Z,4.90
2017-11-03T18:36:02.098Z,5.00
2017-11-03T18:41:03.212Z,4.80
2017-11-03T18:46:04.241Z,4.80
2017-11-03T18:51:05.345Z,4.80
2017-11-03T18:56:06.444Z,4.70
2017-11-03T19:01:08.217Z,4.50
2017-11-03T19:06:10.013Z,4.40
2017-11-03T19:11:11.064Z,4.40
2017-11-03T19:16:12.885Z,4.50
2017-11-03T19:21:13.977Z,4.40
2017-11-03T19:26:15.119Z,4.40
2017-11-03T19:31:16.212Z,4.30
2017-11-03T19:36:18.045Z,4.20
2017-11-03T19:41:19.132Z,4.20
2017-11-03T19:46:20.193Z,4.10
2017-11-03T19:51:21.982Z,3.90
2017-11-03T19:56:27.422Z,3.80
2017-11-03T20:01:29.268Z,3.70
2017-11-03T20:06:30.372Z,3.70
2017-11-03T20:11:32.216Z,3.60
2017-11-03T20:16:33.271Z,3.60
2017-11-03T20:21:34.325Z,3.50
2017-11-03T20:26:37.129Z,3.40
2017-11-03T20:31:38.253Z,3.40
2017-11-03T20:36:39.359Z,3.40
2017-11-03T20:41:40.460Z,3.30
2017-11-03T20:46:41.550Z,3.30
2017-11-03T20:51:42.614Z,3.20
2017-11-03T20:56:43.740Z,3.10
2017-11-03T21:01:44.852Z,3.10
2017-11-03T21:06:45.894Z,3.00
2017-11-03T21:11:46.930Z,2.90
2017-11-03T21:16:48.011Z,2.90
2017-11-03T21:21:49.049Z,2.90
2017-11-03T21:26:50.109Z,2.90
2017-11-03T21:31:51.157Z,2.70
2017-11-03T21:36:52.205Z,2.70
2017-11-03T21:41:53.252Z,2.60
2017-11-03T21:46:54.360Z,2.70
2017-11-03T21:51:55.417Z,2.60
2017-11-03T21:56:56.516Z,2.50
2017-11-03T22:01:58.289Z,2.40
2017-11-03T22:07:00.081Z,2.30
2017-11-03T22:12:01.117Z,2.30
2017-11-03T22:17:02.949Z,2.20
2017-11-03T22:22:04.001Z,2.20
2017-11-03T22:27:05.053Z,2.40
2017-11-03T22:32:06.121Z,2.30
2017-11-03T22:37:07.174Z,2.30
2017-11-03T22:42:09.124Z,2.20
2017-11-03T22:47:10.218Z,2.10
2017-11-03T22:52:11.258Z,2.00
2017-11-03T22:57:12.367Z,1.80
2017-11-03T23:02:13.453Z,1.70
2017-11-03T23:07:15.226Z,2.10
2017-11-03T23:12:17.015Z,2.20
2017-11-03T23:17:18.049Z,2.10
2017-11-03T23:22:19.849Z,2.00
2017-11-03T23:27:20.917Z,2.00
2017-11-03T23:32:21.989Z,2.00
2017-11-03T23:37:23.044Z,1.90
2017-11-03T23:42:24.101Z,1.90
2017-11-03T23:47:25.169Z,1.90
2017-11-03T23:52:26.229Z,1.80
2017-11-03T23:57:27.281Z,1.90
